Terminal Aerodrome Forecast
Issued by NWS

Current Version | Previous Version | Graphics & Text | Print | Product List | Glossary On
Versions: 1 2 3 4 5 6 7 8 9 10 11 12 13 14 15 16 17 18 19 20 21 22 23 24 25 26 27 28 29 30 31 32 33 34 35 36 37 38 39 40 41 42 43 44 45 46 47
000
FTUS41 KRNK 051131
TAFLWB
TAF
KLWB 051131Z 0512/0612 04003KT 1/4SM FG OVC001
     FM051400 05004KT P6SM -SHRA BKN060 OVC100
     FM051700 07005KT 4SM -SHRA BR OVC025
     FM052200 09004KT 4SM -SHRA BR OVC020
      TEMPO 0522/0602 2SM SHRA BR OVC017
     FM060200 06003KT 2SM -SHRA BR BKN007 OVC015=

USA.gov is the U.S. government's official web portal to all federal, state and local government web resources and services.